Oxford, NE (68967)

08:52 AM CDT del 01 Agosto 2014 (GMT -0500)
Brewster (KHDE) Alt. 2310 ft | 40.45 °N, 99.34 °W | Change Station

Current weather conditions updated 17 minutes ago

Clear
Sereno
64 °F
Sembra 64 °F
N
4
Vento Variabile Vento da NNO

Oggi non si prevedono cambiamenti consistenti della temperatura rispetto a ieri.

Oggi
Massima -- | Minima -- °F
--% Possibilità di precip.
Ieri
Massima -- | Minima -- °F
Precip. -- in
6:36 AM 8:52 PM
Luna crescente, 26% visible
Pressione 30.13 in
Visibilità 5.0 miglia
Nuvole Sereno
Punto di rugiada 61 °F
Umidità 91%
Piovosità 0.00 in
Spessore del manto nevoso Non disponibile.
Raggi UV 2 fuori da 12
Polline 7.50 fuori da 12
Qualità dell'aria Non disponibile.
Flu Activity Non disponibile.
METAR KHDE 011335Z AUTO 34003KT 5SM BR CLR 18/16 A3013 RMK AO2 T01780163

More Conditions Fewer Conditions

Pressione 30.13 in
Visibilità 5.0 miglia
Nuvole Sereno
Punto di rugiada 61 °F
Umidità 91%
Piovosità 0.00 in
Spessore del manto nevoso Non disponibile.
Raggi UV 2 fuori da 12
Polline 7.50 fuori da 12
Qualità dell'aria Non disponibile.
Flu Activity Non disponibile.
METAR KHDE 011335Z AUTO 34003KT 5SM BR CLR 18/16 A3013 RMK AO2 T01780163

More Conditions Fewer Conditions

10-Day Weather Forecast

Almanac

Astronomia

Aug. 01, 2014 Alba Tramonto
Ora attuale 06:36 CDT 20:52 CDT
Crepuscolo civile 06:05 CDT 21:23 CDT
Crepuscolo nautico 05:28 CDT 22:00 CDT
Crepuscolo astronomico 04:47 CDT 22:41 CDT
Luna 12:02 CDT 23:37 CDT
Estensione della luce visibile 15h 17m
Lunghezza del giorno
14h 16m
Tomorrow will be 2m 1s shorter.
Luna crescente, 26% of the Moon is Illuminated
Oggi
Luna crescente
Ago 3
Primo quarto
Ago 10
Luna piena
Ago 17
Ultimo quarto
Ago 25
Nuovo

Gli estremi di oggi

State Highs State Lows

Community

WunderPhotos

Upload Photos

1,739,557 foto caricate!

Nearby

Profondità neve

Stazione Profondità Altitudine
Non sono state evidenziate nuove nevicate

Attività sismica

Città  Distanza Mag. Data & Ora
Non sono state riportate attività sismiche nelle vicinanze.
Minimo Magnitudo Mostrato è 2.5.

Temperature delle acque costiere

Località Temperatura
Nessun dato dalle stazioni

Stazioni meteo nelle vicinanze

In questa zona non ci sono stazioni meteo personali.